Hébergeur de fichiers indépendant

1re étape vérifiée.gpx

À propos

Type de fichier
Fichier GPX de 6 Ko (application/xml)
Confidentialité
Fichier public, envoyé le 20 décembre 2017 à 00:57, depuis l'adresse IP 89.2.x.x (France)
Sécurité
Ne contient aucun Virus ou Malware connus - Dernière vérification: hier
Statistiques
La présente page de téléchargement a été vue 364 fois depuis l'envoi du fichier
Page de téléchargement

Aperçu du fichier


<?xml version="1.0" encoding="UTF-8" ?>
		<gpx
		 version="1.0"
		 xmlns:xsi="http://www.w3.org/2001/XMLSchema-instance"
		 xmlns="http://www.topografix.com/GPX/1/0"
		 xsi:schemaLocation="http://www.topografix.com/GPX/1/0 http://www.topografix.com/GPX/1/0/gpx.xsd"
		 creator="http://www.openrunner.com">
			<trk>
				<name>OR-8125163--Brussels:1re étape Tour de France 2019</name>
			    <trkseg>
	
			<trkpt lat="50.842610" lon="4.359470">
			 <ele>65</ele>
			<time>2017-11-19T21:29:33Z</time>
			</trkpt>
		
			<trkpt lat="50.840620" lon="4.357090">
			 <ele>61</ele>
			<time>2017-11-19T21:31:33Z</time>
			</trkpt>
		
			<trkpt lat="50.841620" lon="4.354030">
			 <ele>52</ele>
			<time>2017-11-19T21:33:33Z</time>
			</trkpt>
		
			<trkpt lat="50.843190" lon="4.354810">
			 <ele>44</ele>
			<time>2017-11-19T21:35:33Z</time>
			</trkpt>
		
			<trkpt lat="50.846390" lon="4.348910">
			 <ele>27</ele>
			<time>2017-11-19T21:37:33Z</time>
			</trkpt>
		
			<trkpt lat="50.847010" lon="4.345880">
			 <ele>25</ele>
			<time>2017-11-19T21:39:33Z</time>
			</trkpt>
		
			<trkpt lat="50.849570" lon="4.345800">
			 <ele>22</ele>
			<time>2017-11-19T21:41:33Z</time>
			</trkpt>
		
			<trkpt lat="50.849940" lon="4.346600">
			 <ele>26</ele>
			<time>2017-11-19T21:43:33Z</time>
			</trkpt>
		
			<trkpt lat="50.851440" lon="4.344990">
			 <ele>24</ele>
			<time>2017-11-19T21:45:33Z</time>
			</trkpt>
		
			<trkpt lat="50.855420" lon="4.347470">
			 <ele>20</ele>
			<time>2017-11-19T21:47:33Z</time>
			</trkpt>
		
			<trkpt lat="50.855330" lon="4.352350">
			 <ele>22</ele>
			<time>2017-11-19T21:49:33Z</time>
			</trkpt>
		
			<trkpt lat="50.853490" lon="4.351660">
			 <ele>22</ele>
			<time>2017-11-19T21:51:33Z</time>
			</trkpt>
		
			<trkpt lat="50.852500" lon="4.354310">
			 <ele>29</ele>
			<time>2017-11-19T21:53:33Z</time>
			</trkpt>
		
			<trkpt lat="50.855360" lon="4.357870">
			 <ele>30</ele>
			<time>2017-11-19T21:55:33Z</time>
			</trkpt>
		
			<trkpt lat="50.853740" lon="4.363150">
			 <ele>37</ele>
			<time>2017-11-19T21:57:33Z</time>
			</trkpt>
		
			<trkpt lat="50.850420" lon="4.361100">
			 <ele>41</ele>
			<time>2017-11-19T21:59:33Z</time>
			</trkpt>
		
			<trkpt lat="50.847710" lon="4.357200">
			 <ele>39</ele>
			<time>2017-11-19T22:01:33Z</time>
			</trkpt>
		
			<trkpt lat="50.846210" lon="4.358820">
			 <ele>52</ele>
			<time>2017-11-19T22:03:33Z</time>
			</trkpt>
		
			<trkpt lat="50.846860" lon="4.360290">
			 <ele>59</ele>
			<time>2017-11-19T22:05:33Z</time>
			</trkpt>
		
			<trkpt lat="50.847410" lon="4.359900">
			 <ele>51</ele>
			<time>2017-11-19T22:07:33Z</time>
			</trkpt>
		
			<trkpt lat="50.847660" lon="4.362890">
			 <ele>64</ele>
			<time>2017-11-19T22:09:33Z</time>
			</trkpt>
		
			<trkpt lat="50.853040" lon="4.365720">
			 <ele>48</ele>
			<time>2017-11-19T22:11:33Z</time>
			</trkpt>
		
			<trkpt lat="50.852380" lon="4.367850">
			 <ele>60</ele>
			<time>2017-11-19T22:13:33Z</time>
			</trkpt>
		
			<trkpt lat="50.847520" lon="4.369340">
			 <ele>69</ele>
			<time>2017-11-19T22:15:33Z</time>
			</trkpt>
		
			<trkpt lat="50.842860" lon="4.366900">
			 <ele>70</ele>
			<time>2017-11-19T22:17:33Z</time>
			</trkpt>
		
			<trkpt lat="50.841520" lon="4.373300">
			 <ele>71</ele>
			<time>2017-11-19T22:19:33Z</time>
			</trkpt>
		
			<trkpt lat="50.844270" lon="4.374850">
			 <ele>65</ele>
			<time>2017-11-19T22:21:33Z</time>
			</trkpt>
		
			<trkpt lat="50.844890" lon="4.371870">
			 <ele>69</ele>
			<time>2017-11-19T22:23:33Z</time>
			</trkpt>
		
			<trkpt lat="50.847290" lon="4.373180">
			 <ele>55</ele>
			<time>2017-11-19T22:25:33Z</time>
			</trkpt>
		
			<trkpt lat="50.846830" lon="4.377850">
			 <ele>51</ele>
			<time>2017-11-19T22:27:33Z</time>
			</trkpt>
		
			<trkpt lat="50.845880" lon="4.377830">
			 <ele>55</ele>
			<time>2017-11-19T22:29:33Z</time>
			</trkpt>
		
			<trkpt lat="50.846730" lon="4.380460">
			 <ele>55</ele>
			<time>2017-11-19T22:31:33Z</time>
			</trkpt>
		
			<trkpt lat="50.846270" lon="4.383700">
			 <ele>65</ele>
			<time>2017-11-19T22:33:33Z</time>
			</trkpt>
		
			<trkpt lat="50.844150" lon="4.383840">
			 <ele>66</ele>
			<time>2017-11-19T22:35:33Z</time>
			</trkpt>
		
			<trkpt lat="50.843540" lon="4.386550">
			 <ele>77</ele>
			<time>2017-11-19T22:37:33Z</time>
			</trkpt>
		
			<trkpt lat="50.842340" lon="4.383450">
			 <ele>76</ele>
			<time>2017-11-19T22:39:33Z</time>
			</trkpt>
		
			<trkpt lat="50.839610" lon="4.385440">
			 <ele>77</ele>
			<time>2017-11-19T22:41:33Z</time>
			</trkpt>
		
			<trkpt lat="50.838130" lon="4.392440">
			 <ele>80</ele>
			<time>2017-11-19T22:43:33Z</time>
			</trkpt>
		
			<trkpt lat="50.838630" lon="4.395190">
			 <ele>81</ele>
			<time>2017-11-19T22:45:33Z</time>
			</trkpt>
		
			<trkpt lat="50.838120" lon="4.397220">
			 <ele>78</ele>
			<time>2017-11-19T22:47:33Z</time>
			</trkpt>
		
			<trkpt lat="50.837270" lon="4.395520">
			 <ele>70</ele>
			<time>2017-11-19T22:49:33Z</time>
			</trkpt>
		
			<trkpt lat="50.830610" lon="4.389880">
			 <ele>81</ele>
			<time>2017-11-19T22:51:33Z</time>
			</trkpt>
		
			<trkpt lat="50.834480" lon="4.383910">
			 <ele>56</ele>
			<time>2017-11-19T22:53:33Z</time>
			</trkpt>
		
			<trkpt lat="50.829660" lon="4.379120">
			 <ele>75</ele>
			<time>2017-11-19T22:55:33Z</time>
			</trkpt>
		
			<trkpt lat="50.832850" lon="4.375120">
			 <ele>75</ele>
			<time>2017-11-19T22:57:33Z</time>
			</trkpt>
		
			<trkpt lat="50.833730" lon="4.376950">
			 <ele>67</ele>
			<time>2017-11-19T22:59:33Z</time>
			</trkpt>
		
			<trkpt lat="50.835720" lon="4.375820">
			 <ele>75</ele>
			<time>2017-11-19T23:01:33Z</time>
			</trkpt>
		
			<trkpt lat="50.835850" lon="4.374310">
			 <ele>74</ele>
			<time>2017-11-19T23:03:33Z</time>
			</trkpt>
		
			<trkpt lat="50.839010" lon="4.375590">
			 <ele>81</ele>
			<time>2017-11-19T23:05:33Z</time>
			</trkpt>
		
				</trkseg>
			   </trk>
			 </gpx>
	


Partager le fichier


Télécharger 1re étape vérifiée.gpx